createdAt,value
2023-05-20T00:02:06.221Z,13.39
2023-05-20T00:05:09.625Z,13.37
2023-05-20T00:08:12.735Z,13.42
2023-05-20T00:11:15.807Z,13.31
2023-05-20T00:14:18.749Z,13.38
2023-05-20T00:17:21.948Z,13.48
2023-05-20T00:20:25.449Z,13.41
2023-05-20T00:23:28.659Z,13.39
2023-05-20T00:26:31.486Z,13.22
2023-05-20T00:29:35.063Z,13.33
2023-05-20T00:32:37.939Z,13.07
2023-05-20T00:35:42.718Z,12.94
2023-05-20T00:38:45.843Z,12.97
2023-05-20T00:41:49.107Z,13.01
2023-05-20T00:44:52.970Z,13.21
2023-05-20T00:47:59.942Z,13.39
2023-05-20T00:51:05.137Z,13.50
2023-05-20T00:54:08.296Z,13.60
2023-05-20T00:57:12.053Z,13.60
2023-05-20T01:00:15.421Z,13.64
2023-05-20T01:03:18.368Z,13.76
2023-05-20T01:06:21.539Z,13.99
2023-05-20T01:09:25.313Z,14.08
2023-05-20T01:12:32.025Z,13.97
2023-05-20T01:15:35.909Z,13.96
2023-05-20T01:18:41.181Z,13.87
2023-05-20T01:21:45.246Z,13.82
2023-05-20T01:24:48.638Z,13.81
2023-05-20T01:27:53.033Z,13.75
2023-05-20T01:31:00.913Z,13.71
2023-05-20T01:34:06.025Z,13.63
2023-05-20T01:37:10.882Z,13.65
2023-05-20T01:40:16.769Z,13.48
2023-05-20T01:43:21.184Z,13.37
2023-05-20T01:46:23.979Z,13.55
2023-05-20T01:49:27.703Z,13.57
2023-05-20T01:52:31.982Z,13.37
2023-05-20T01:55:35.251Z,13.39
2023-05-20T01:58:38.200Z,13.26
2023-05-20T02:01:41.924Z,13.33
2023-05-20T02:04:51.601Z,13.23
2023-05-20T02:07:54.443Z,13.11
2023-05-20T02:10:58.661Z,13.00
2023-05-20T02:14:01.465Z,13.15
2023-05-20T02:17:04.825Z,13.16
2023-05-20T02:20:08.320Z,13.00
2023-05-20T02:23:11.861Z,13.02
2023-05-20T02:26:14.640Z,12.69
2023-05-20T02:29:17.968Z,12.64
2023-05-20T02:32:21.680Z,12.63
2023-05-20T02:35:24.904Z,12.73
2023-05-20T02:38:27.785Z,12.82
2023-05-20T02:41:31.017Z,13.02
2023-05-20T02:44:33.819Z,13.04
2023-05-20T02:47:37.190Z,13.01
2023-05-20T02:50:40.833Z,12.91
2023-05-20T02:53:44.104Z,12.75
2023-05-20T02:56:47.198Z,12.50
2023-05-20T02:59:50.492Z,12.56
2023-05-20T03:02:53.374Z,12.57
2023-05-20T03:05:56.593Z,12.50
2023-05-20T03:08:59.725Z,12.52
2023-05-20T03:12:02.763Z,12.53
2023-05-20T03:15:06.517Z,12.31
2023-05-20T03:18:11.464Z,12.35
2023-05-20T03:21:14.284Z,12.37
2023-05-20T03:24:18.360Z,12.26
2023-05-20T03:27:22.873Z,12.30
2023-05-20T03:30:26.598Z,12.20
2023-05-20T03:33:30.432Z,12.21
2023-05-20T03:36:33.602Z,12.17
2023-05-20T03:39:36.643Z,12.10
2023-05-20T03:42:40.230Z,12.05
2023-05-20T03:45:43.051Z,11.96
2023-05-20T03:48:46.482Z,11.98
2023-05-20T03:51:49.350Z,11.95
2023-05-20T03:54:54.593Z,12.00
2023-05-20T03:57:58.136Z,12.10
2023-05-20T04:01:01.302Z,12.16
2023-05-20T04:04:05.296Z,12.24
2023-05-20T04:07:08.604Z,12.30
2023-05-20T04:10:12.719Z,12.33
2023-05-20T04:13:15.465Z,12.42
2023-05-20T04:16:18.673Z,12.52
2023-05-20T04:19:21.612Z,12.56
2023-05-20T04:22:25.294Z,12.70
2023-05-20T04:25:28.151Z,12.82
2023-05-20T04:28:34.021Z,12.90
2023-05-20T04:31:36.912Z,12.96
2023-05-20T04:34:40.141Z,13.10
2023-05-20T04:37:44.915Z,13.12
2023-05-20T04:40:48.064Z,13.16
2023-05-20T04:43:50.816Z,13.20
2023-05-20T04:46:53.971Z,13.37
2023-05-20T04:49:59.776Z,13.45
2023-05-20T04:53:03.092Z,13.66
2023-05-20T04:56:06.133Z,13.90
2023-05-20T04:59:10.729Z,13.90
2023-05-20T05:02:13.877Z,13.92
2023-05-20T05:05:17.223Z,13.92
2023-05-20T05:08:20.061Z,14.09
2023-05-20T05:11:24.074Z,14.34
2023-05-20T05:14:27.306Z,14.60
2023-05-20T05:17:31.474Z,14.70
2023-05-20T05:20:34.297Z,15.23
2023-05-20T05:23:37.669Z,15.70
2023-05-20T05:26:40.741Z,15.94
2023-05-20T05:29:44.051Z,16.22
2023-05-20T05:32:46.839Z,16.44
2023-05-20T05:35:51.268Z,16.79
2023-05-20T05:38:54.288Z,17.15
2023-05-20T05:41:58.276Z,17.61
2023-05-20T05:45:01.354Z,18.13
2023-05-20T05:48:04.967Z,18.28
2023-05-20T05:51:08.060Z,18.59
2023-05-20T05:54:11.581Z,18.62
2023-05-20T05:57:14.457Z,18.61
2023-05-20T06:00:17.884Z,18.69
2023-05-20T06:03:20.700Z,18.92
2023-05-20T06:06:24.177Z,19.07
2023-05-20T06:09:26.998Z,19.16
2023-05-20T06:12:30.299Z,19.30
2023-05-20T06:15:33.264Z,19.42
2023-05-20T06:18:38.120Z,19.46
2023-05-20T06:21:41.878Z,19.44
2023-05-20T06:24:45.375Z,19.73
2023-05-20T06:27:48.595Z,19.46
2023-05-20T06:30:55.039Z,19.56
2023-05-20T06:33:59.435Z,19.16
2023-05-20T06:37:02.813Z,19.02
2023-05-20T06:40:06.357Z,19.14
2023-05-20T06:43:10.668Z,18.99
2023-05-20T06:46:17.065Z,18.87
2023-05-20T06:49:21.282Z,19.02
2023-05-20T06:52:24.497Z,19.30
2023-05-20T06:55:28.439Z,19.46
2023-05-20T06:58:31.339Z,19.60
2023-05-20T07:01:34.676Z,19.67
2023-05-20T07:04:37.930Z,19.75
2023-05-20T07:07:41.248Z,19.88
2023-05-20T07:10:46.747Z,20.80
2023-05-20T07:13:50.848Z,21.26
2023-05-20T07:16:53.806Z,21.54
2023-05-20T07:19:57.212Z,21.93
2023-05-20T07:23:01.209Z,21.99
2023-05-20T07:26:05.048Z,22.21
2023-05-20T07:29:08.166Z,22.63
2023-05-20T07:32:12.939Z,22.97
2023-05-20T07:35:15.802Z,23.35
2023-05-20T07:38:19.591Z,23.67
2023-05-20T07:41:22.908Z,24.05
2023-05-20T07:44:26.837Z,24.01
2023-05-20T07:47:33.060Z,24.24
2023-05-20T07:50:38.011Z,23.97
2023-05-20T07:53:40.781Z,24.63
2023-05-20T07:56:43.944Z,24.52
2023-05-20T07:59:47.104Z,25.02
2023-05-20T08:02:51.268Z,25.12
2023-05-20T08:05:54.761Z,25.25
2023-05-20T08:08:57.799Z,24.60
2023-05-20T08:12:01.237Z,24.84
2023-05-20T08:15:05.428Z,25.38
2023-05-20T08:18:08.637Z,25.71
2023-05-20T08:21:12.493Z,25.49
2023-05-20T08:24:16.182Z,26.06
2023-05-20T08:27:19.315Z,25.36
2023-05-20T08:30:23.280Z,24.63
2023-05-20T08:33:26.225Z,24.68
2023-05-20T08:36:29.602Z,25.30
2023-05-20T08:39:32.467Z,25.85
2023-05-20T08:42:35.739Z,26.00
2023-05-20T08:45:39.354Z,25.49
2023-05-20T08:48:42.849Z,24.74
2023-05-20T08:51:47.533Z,25.55
2023-05-20T08:54:52.377Z,25.17
2023-05-20T08:57:55.508Z,25.55
2023-05-20T09:01:02.340Z,25.12
2023-05-20T09:04:05.312Z,25.71
2023-05-20T09:07:08.489Z,25.89
2023-05-20T09:10:11.688Z,25.26
2023-05-20T09:13:14.870Z,25.27
2023-05-20T09:16:17.866Z,25.93
2023-05-20T09:19:24.859Z,26.07
2023-05-20T09:22:29.692Z,25.99
2023-05-20T09:25:33.343Z,25.89
2023-05-20T09:28:38.556Z,26.09
2023-05-20T09:31:41.770Z,25.67
2023-05-20T09:34:47.788Z,25.66
2023-05-20T09:37:55.497Z,26.21
2023-05-20T09:41:01.915Z,25.76
2023-05-20T09:44:07.359Z,26.75
2023-05-20T09:47:10.473Z,27.40
2023-05-20T09:50:15.243Z,25.95
2023-05-20T09:53:18.745Z,26.28
2023-05-20T09:56:25.695Z,27.48
2023-05-20T09:59:30.454Z,26.86
2023-05-20T10:02:38.403Z,26.56
2023-05-20T10:06:05.590Z,26.89
2023-05-20T10:09:41.782Z,27.43
2023-05-20T10:12:50.766Z,26.96
2023-05-20T10:16:05.522Z,28.20
2023-05-20T10:19:32.757Z,27.85
2023-05-20T10:22:35.872Z,28.24
2023-05-20T10:25:38.963Z,29.25
2023-05-20T10:28:42.030Z,29.17
2023-05-20T10:31:49.003Z,28.62
2023-05-20T10:34:51.957Z,28.58
2023-05-20T10:38:06.597Z,28.72
2023-05-20T10:41:11.554Z,29.26
2023-05-20T10:44:14.662Z,28.84
2023-05-20T10:47:25.306Z,27.95
2023-05-20T10:50:36.910Z,28.39
2023-05-20T10:53:41.650Z,28.97
2023-05-20T10:56:55.305Z,28.17
2023-05-20T10:59:59.480Z,28.24
2023-05-20T11:03:03.655Z,28.69
2023-05-20T11:06:16.041Z,27.65
2023-05-20T11:09:20.872Z,28.15
2023-05-20T11:12:28.179Z,28.83
2023-05-20T11:15:32.559Z,28.37
2023-05-20T11:18:35.234Z,29.52
2023-05-20T11:21:44.461Z,28.75
2023-05-20T11:24:47.695Z,28.08
2023-05-20T11:27:52.168Z,28.99
2023-05-20T11:30:55.753Z,28.33
2023-05-20T11:34:02.515Z,28.22
2023-05-20T11:37:10.091Z,28.06
2023-05-20T11:40:13.911Z,28.24
2023-05-20T11:43:17.312Z,28.46
2023-05-20T11:46:21.640Z,28.67
2023-05-20T11:49:24.504Z,29.34
2023-05-20T11:52:29.676Z,28.58
2023-05-20T11:55:45.696Z,28.72
2023-05-20T11:58:48.856Z,28.13
2023-05-20T12:01:51.536Z,28.49
2023-05-20T12:04:54.622Z,28.56
2023-05-20T12:07:57.474Z,28.55
2023-05-20T12:11:00.677Z,28.35
2023-05-20T12:14:04.242Z,28.24
2023-05-20T12:17:07.258Z,28.18
2023-05-20T12:20:10.924Z,28.88
2023-05-20T12:23:13.929Z,28.78
2023-05-20T12:26:17.133Z,29.19
2023-05-20T12:29:20.137Z,29.27
2023-05-20T12:32:23.813Z,29.51
2023-05-20T12:35:40.802Z,29.28
2023-05-20T12:38:43.674Z,29.57
2023-05-20T12:41:46.841Z,29.12
2023-05-20T12:44:49.881Z,29.06
2023-05-20T12:47:54.941Z,29.27
2023-05-20T12:50:57.717Z,28.09
2023-05-20T12:54:01.106Z,28.77
2023-05-20T12:57:04.325Z,28.34
2023-05-20T13:00:09.195Z,29.09
2023-05-20T13:03:12.039Z,29.40
2023-05-20T13:06:15.287Z,29.21
2023-05-20T13:09:18.150Z,29.18
2023-05-20T13:12:21.665Z,28.54
2023-05-20T13:15:24.383Z,28.29
2023-05-20T13:18:27.816Z,27.59
2023-05-20T13:21:30.557Z,28.36
2023-05-20T13:24:34.852Z,28.69
2023-05-20T13:27:37.996Z,28.66
2023-05-20T13:30:41.237Z,28.72
2023-05-20T13:33:44.126Z,29.28
2023-05-20T13:36:48.026Z,28.71
2023-05-20T13:39:51.622Z,28.04
2023-05-20T13:42:54.758Z,28.13
2023-05-20T13:45:57.693Z,27.49
2023-05-20T13:49:01.400Z,27.07
2023-05-20T13:52:04.950Z,26.35
2023-05-20T13:55:08.871Z,26.59
2023-05-20T13:58:12.132Z,27.22
2023-05-20T14:01:15.772Z,27.54
2023-05-20T14:04:19.487Z,27.36
2023-05-20T14:07:22.928Z,27.80
2023-05-20T14:10:26.584Z,27.10
2023-05-20T14:13:29.622Z,26.91
2023-05-20T14:16:33.328Z,26.12
2023-05-20T14:19:36.343Z,26.28
2023-05-20T14:22:39.480Z,26.47
2023-05-20T14:25:42.394Z,26.69
2023-05-20T14:28:47.757Z,27.02
2023-05-20T14:31:51.149Z,26.85
2023-05-20T14:34:54.353Z,26.52
2023-05-20T14:37:57.157Z,25.99
2023-05-20T14:41:00.471Z,26.44
2023-05-20T14:44:03.176Z,26.38
2023-05-20T14:47:06.442Z,26.68
2023-05-20T14:50:09.727Z,26.62
2023-05-20T14:53:12.849Z,26.78
2023-05-20T14:56:15.576Z,26.72
2023-05-20T14:59:19.607Z,26.52
2023-05-20T15:02:22.678Z,26.46
2023-05-20T15:05:25.909Z,26.57
2023-05-20T15:08:29.208Z,26.56
2023-05-20T15:11:32.374Z,26.42
2023-05-20T15:14:35.192Z,26.54
2023-05-20T15:17:38.414Z,26.44
2023-05-20T15:20:41.788Z,26.40
2023-05-20T15:23:45.392Z,26.36
2023-05-20T15:26:48.372Z,26.36
2023-05-20T15:29:51.572Z,26.17
2023-05-20T15:32:54.451Z,26.09
2023-05-20T15:35:58.054Z,26.12
2023-05-20T15:39:01.084Z,26.01
2023-05-20T15:42:05.458Z,26.10
2023-05-20T15:45:09.788Z,26.03
2023-05-20T15:48:12.984Z,25.83
2023-05-20T15:51:15.891Z,25.70
2023-05-20T15:54:20.397Z,25.76
2023-05-20T15:57:23.593Z,25.67
2023-05-20T16:00:26.771Z,25.61
2023-05-20T16:03:30.192Z,25.59
2023-05-20T16:06:34.418Z,25.62
2023-05-20T16:09:37.751Z,25.55
2023-05-20T16:12:40.586Z,25.67
2023-05-20T16:15:44.360Z,25.55
2023-05-20T16:18:47.281Z,25.41
2023-05-20T16:21:50.512Z,25.43
2023-05-20T16:24:53.466Z,25.34
2023-05-20T16:27:58.110Z,25.21
2023-05-20T16:31:02.728Z,25.14
2023-05-20T16:34:10.464Z,25.11
2023-05-20T16:37:18.132Z,25.08
2023-05-20T16:40:23.167Z,24.92
2023-05-20T16:43:25.826Z,24.90
2023-05-20T16:46:29.275Z,24.84
2023-05-20T16:49:32.075Z,24.76
2023-05-20T16:52:36.252Z,24.75
2023-05-20T16:55:39.137Z,24.63
2023-05-20T16:58:42.247Z,24.58
2023-05-20T17:01:45.760Z,24.50
2023-05-20T17:04:49.040Z,24.47
2023-05-20T17:07:51.992Z,24.43
2023-05-20T17:10:55.600Z,24.29
2023-05-20T17:13:58.376Z,24.19
2023-05-20T17:17:01.527Z,24.10
2023-05-20T17:20:08.007Z,23.99
2023-05-20T17:23:11.384Z,23.87
2023-05-20T17:26:14.357Z,23.81
2023-05-20T17:29:17.832Z,23.70
2023-05-20T17:32:21.030Z,23.56
2023-05-20T17:35:28.270Z,23.46
2023-05-20T17:38:31.209Z,23.37
2023-05-20T17:41:34.298Z,23.24
2023-05-20T17:44:37.130Z,23.11
2023-05-20T17:47:40.378Z,23.00
2023-05-20T17:50:45.349Z,22.90
2023-05-20T17:53:48.708Z,22.80
2023-05-20T17:56:51.614Z,22.67
2023-05-20T17:59:55.415Z,22.49
2023-05-20T18:02:58.479Z,22.35
2023-05-20T18:06:02.206Z,22.21
2023-05-20T18:09:06.256Z,21.99
2023-05-20T18:12:09.714Z,21.79
2023-05-20T18:15:14.408Z,21.60
2023-05-20T18:18:17.719Z,21.47
2023-05-20T18:21:22.103Z,21.37
2023-05-20T18:24:25.245Z,21.37
2023-05-20T18:27:28.068Z,21.29
2023-05-20T18:30:31.307Z,21.21
2023-05-20T18:33:35.031Z,21.06
2023-05-20T18:36:38.675Z,20.92
2023-05-20T18:39:41.661Z,21.13
2023-05-20T18:42:45.003Z,21.17
2023-05-20T18:45:47.733Z,21.25
2023-05-20T18:48:51.020Z,21.18
2023-05-20T18:51:53.749Z,21.14
2023-05-20T18:54:56.917Z,21.22
2023-05-20T18:57:59.666Z,21.26
2023-05-20T19:01:02.818Z,21.33
2023-05-20T19:04:06.288Z,21.38
2023-05-20T19:07:11.724Z,21.30
2023-05-20T19:10:15.483Z,21.10
2023-05-20T19:13:18.703Z,21.03
2023-05-20T19:16:21.582Z,20.92
2023-05-20T19:19:24.868Z,20.78
2023-05-20T19:22:27.822Z,20.74
2023-05-20T19:25:31.140Z,20.63
2023-05-20T19:28:34.018Z,20.58
2023-05-20T19:31:41.547Z,20.49
2023-05-20T19:34:44.943Z,20.45
2023-05-20T19:37:48.101Z,20.47
2023-05-20T19:40:51.101Z,20.35
2023-05-20T19:43:54.219Z,20.30
2023-05-20T19:46:56.953Z,20.22
2023-05-20T19:50:00.170Z,20.12
2023-05-20T19:53:06.505Z,19.92
2023-05-20T19:56:09.720Z,19.88
2023-05-20T19:59:13.265Z,19.76
2023-05-20T20:02:16.495Z,19.74
2023-05-20T20:05:22.367Z,19.64
2023-05-20T20:08:26.507Z,19.51
2023-05-20T20:11:29.566Z,19.51
2023-05-20T20:14:32.699Z,19.40
2023-05-20T20:17:35.778Z,19.42
2023-05-20T20:20:40.846Z,19.31
2023-05-20T20:23:43.950Z,19.22
2023-05-20T20:26:49.426Z,19.11
2023-05-20T20:29:52.990Z,19.11
2023-05-20T20:32:56.073Z,19.10
2023-05-20T20:35:59.246Z,19.09
2023-05-20T20:39:05.400Z,19.02
2023-05-20T20:42:08.579Z,18.89
2023-05-20T20:45:18.824Z,18.59
2023-05-20T20:48:27.280Z,18.21
2023-05-20T20:51:30.331Z,17.87
2023-05-20T20:54:33.566Z,17.70
2023-05-20T20:57:36.988Z,17.58
2023-05-20T21:00:44.917Z,17.37
2023-05-20T21:03:48.647Z,17.37
2023-05-20T21:06:52.493Z,17.41
2023-05-20T21:09:55.922Z,17.36
2023-05-20T21:12:59.590Z,17.19
2023-05-20T21:16:02.473Z,17.25
2023-05-20T21:19:05.551Z,17.10
2023-05-20T21:22:08.401Z,17.18
2023-05-20T21:25:11.471Z,17.10
2023-05-20T21:28:14.406Z,17.06
2023-05-20T21:31:17.729Z,17.06
2023-05-20T21:34:20.660Z,17.04
2023-05-20T21:37:23.939Z,16.89
2023-05-20T21:40:26.732Z,16.91
2023-05-20T21:43:31.006Z,16.94
2023-05-20T21:46:33.958Z,16.86
2023-05-20T21:49:37.034Z,16.89
2023-05-20T21:52:40.435Z,16.92
2023-05-20T21:55:43.428Z,16.83
2023-05-20T21:58:46.111Z,16.67
2023-05-20T22:01:51.053Z,16.69
2023-05-20T22:04:55.513Z,16.69
2023-05-20T22:08:00.857Z,16.61
2023-05-20T22:11:05.621Z,16.59
2023-05-20T22:14:08.551Z,16.60
2023-05-20T22:17:11.729Z,16.65
2023-05-20T22:20:14.652Z,16.50
2023-05-20T22:23:18.001Z,16.50
2023-05-20T22:26:20.908Z,16.65
2023-05-20T22:29:24.056Z,16.70
2023-05-20T22:32:26.795Z,16.63
2023-05-20T22:35:30.026Z,16.56
2023-05-20T22:38:33.016Z,16.51
2023-05-20T22:41:36.313Z,16.53
2023-05-20T22:44:39.096Z,16.41
2023-05-20T22:47:42.225Z,16.44
2023-05-20T22:50:45.761Z,16.38
2023-05-20T22:53:49.282Z,16.37
2023-05-20T22:56:59.333Z,16.49
2023-05-20T23:00:02.730Z,16.54
2023-05-20T23:03:06.115Z,16.61
2023-05-20T23:06:09.524Z,16.74
2023-05-20T23:09:13.040Z,16.57
2023-05-20T23:12:16.619Z,16.72
2023-05-20T23:15:19.459Z,16.78
2023-05-20T23:18:22.555Z,16.63
2023-05-20T23:21:25.607Z,16.78
2023-05-20T23:24:28.903Z,16.95
2023-05-20T23:27:32.325Z,16.92
2023-05-20T23:30:36.419Z,16.83
2023-05-20T23:33:39.196Z,16.64
2023-05-20T23:36:42.765Z,16.65
2023-05-20T23:39:46.368Z,16.72
2023-05-20T23:42:49.447Z,16.60
2023-05-20T23:45:52.168Z,16.66
2023-05-20T23:48:55.206Z,16.62
2023-05-20T23:51:58.085Z,16.52
2023-05-20T23:55:01.292Z,16.38
2023-05-20T23:58:04.053Z,16.25
